Latest Weather Observations for Fawkner Beacon

IDV60901

Issued at 9:21 am EDT Sunday 2 October 2016 (issued every 10 minutes, with the page automatically refreshed every 10 minutes)

About weather observations | Map of Melbourne area stations | Latest observations for Melbourne area | Other Formats
Station Details ID: 086376 Name: FAWKNER BEACON Lat: -37.91 Lon: 144.93 Height: 17.0 m
Data from the previous 72 hours. | See also: Recent months for locations in Victoria
Date/Time
EDT
Temp
°C
App
Temp
°C
Dew
Point
°C
Rel
Hum
%
Delta-T
°C
Wind Press
QNH
hPa
Press
MSL
hPa
Rain since
9am
mm
Dir  Spd
km/h
Gust
km/h
Spd
kts
Gust
kts
02/09:13am - - - - - N 33 54 18 29 - - -
02/09:00am - - - - - NNE 26 33 14 18 - - -
02/08:30am - - - - - N 39 46 21 25 - - -
02/08:00am - - - - - N 50 59 27 32 - - -
02/07:30am - - - - - NNE 37 44 20 24 - - -
02/07:00am - - - - - NNE 30 33 16 18 - - -
02/06:30am - - - - - N 32 39 17 21 - - -
02/06:00am - - - - - N 32 41 17 22 - - -
02/05:30am - - - - - N 46 57 25 31 - - -
02/05:00am - - - - - N 46 54 25 29 - - -
02/04:30am - - - - - N 44 52 24 28 - - -
02/04:00am - - - - - N 43 50 23 27 - - -
02/03:30am - - - - - N 39 48 21 26 - - -
02/03:00am - - - - - N 39 46 21 25 - - -
02/01:30am - - - - - N 30 33 16 18 - - -
02/01:00am - - - - - N 32 39 17 21 - - -
02/12:30am - - - - - N 35 44 19 24 - - -
02/12:00am - - - - - N 39 46 21 25 - - -
 
Date/Time
EDT
Temp
°C
App
Temp
°C
Dew
Point
°C
Rel
Hum
%
Delta-T
°C
Wind Press
QNH
hPa
Press
MSL
hPa
Rain since
9am
mm
Dir  Spd
km/h
Gust
km/h
Spd
kts
Gust
kts
01/11:30pm - - - - - N 37 43 20 23 - - -
01/11:00pm - - - - - N 32 39 17 21 - - -
01/10:30pm - - - - - N 28 32 15 17 - - -
01/10:00pm - - - - - N 30 35 16 19 - - -
01/09:30pm - - - - - NNW 28 35 15 19 - - -
01/09:00pm - - - - - NW 28 32 15 17 - - -
01/08:30pm - - - - - NW 32 39 17 21 - - -
01/08:00pm - - - - - NNW 28 33 15 18 - - -
01/07:30pm - - - - - NNW 30 39 16 21 - - -
01/07:00pm - - - - - NNW 30 33 16 18 - - -
01/06:30pm - - - - - NNW 33 41 18 22 - - -
01/06:00pm - - - - - NNW 26 35 14 19 - - -
01/05:30pm - - - - - NW 28 33 15 18 - - -
01/05:00pm - - - - - W 20 24 11 13 - - -
01/04:30pm - - - - - W 26 30 14 16 - - -
01/04:00pm - - - - - W 26 32 14 17 - - -
01/03:30pm - - - - - WNW 32 41 17 22 - - -
01/03:00pm - - - - - WNW 32 35 17 19 - - -
01/02:30pm - - - - - WNW 28 32 15 17 - - -
01/02:00pm - - - - - - - - - - - - -
01/01:30pm - - - - - WNW 33 43 18 23 - - -
01/01:00pm - - - - - WNW 28 33 15 18 - - -
01/12:30pm - - - - - WNW 35 43 19 23 - - -
01/12:00pm - - - - - W 39 52 21 28 - - -
01/11:30am - - - - - W 44 52 24 28 - - -
01/11:00am - - - - - W 41 48 22 26 - - -
01/10:30am - - - - - W 35 46 19 25 - - -
01/10:00am - - - - - WNW 33 41 18 22 - - -
01/09:30am - - - - - WNW 39 44 21 24 - - -
01/09:17am - - - - - WNW 32 50 17 27 - - -
01/09:00am - - - - - WNW 33 41 18 22 - - -
01/08:30am - - - - - W 41 52 22 28 - - -
01/08:00am - - - - - WNW 30 35 16 19 - - -
01/07:30am - - - - - WNW 26 30 14 16 - - -
01/07:00am - - - - - WNW 24 28 13 15 - - -
01/06:30am - - - - - NW 26 32 14 17 - - -
01/06:00am - - - - - WNW 33 39 18 21 - - -
01/05:30am - - - - - WNW 26 35 14 19 - - -
01/05:00am - - - - - WNW 22 26 12 14 - - -
01/04:30am - - - - - WNW 30 39 16 21 - - -
01/04:00am - - - - - WNW 32 35 17 19 - - -
01/03:30am - - - - - NW 30 35 16 19 - - -
01/03:00am - - - - - NW 32 35 17 19 - - -
01/02:30am - - - - - NNW 26 30 14 16 - - -
01/02:00am - - - - - NNW 28 32 15 17 - - -
01/01:30am - - - - - NNW 30 41 16 22 - - -
01/01:00am - - - - - NNW 32 39 17 21 - - -
01/12:30am - - - - - N 30 35 16 19 - - -
01/12:00am - - - - - NNW 30 33 16 18 - - -
 
Date/Time
EDT
Temp
°C
App
Temp
°C
Dew
Point
°C
Rel
Hum
%
Delta-T
°C
Wind Press
QNH
hPa
Press
MSL
hPa
Rain since
9am
mm
Dir  Spd
km/h
Gust
km/h
Spd
kts
Gust
kts
30/11:30pm - - - - - N 28 32 15 17 - - -
30/11:00pm - - - - - N 22 26 12 14 - - -
30/10:30pm - - - - - N 15 20 8 11 - - -
30/10:00pm - - - - - NNW 19 22 10 12 - - -
30/09:30pm - - - - - NNW 11 15 6 8 - - -
30/09:00pm - - - - - WNW 11 13 6 7 - - -
30/08:30pm - - - - - W 13 17 7 9 - - -
30/08:00pm - - - - - WNW 15 17 8 9 - - -
30/07:30pm - - - - - WNW 9 11 5 6 - - -
30/07:00pm - - - - - W 11 13 6 7 - - -
30/06:30pm - - - - - SW 9 13 5 7 - - -
30/06:00pm - - - - - SSW 7 11 4 6 - - -
30/05:30pm - - - - - SSW 11 13 6 7 - - -
30/05:00pm - - - - - SSW 11 15 6 8 - - -
30/04:30pm - - - - - S 11 13 6 7 - - -
30/04:00pm - - - - - S 11 15 6 8 - - -
30/03:30pm - - - - - S 13 15 7 8 - - -
30/03:00pm - - - - - S 9 11 5 6 - - -
30/02:30pm - - - - - S 11 15 6 8 - - -
30/02:00pm - - - - - SSW 9 9 5 5 - - -
30/01:30pm - - - - - SSW 6 7 3 4 - - -
30/01:00pm - - - - - WSW 4 7 2 4 - - -
30/12:30pm - - - - - CALM 0 4 0 2 - - -
30/12:00pm - - - - - W 2 6 1 3 - - -
30/11:30am - - - - - NW 6 7 3 4 - - -
30/11:00am - - - - - WNW 7 11 4 6 - - -
30/10:30am - - - - - WNW 11 13 6 7 - - -
30/10:00am - - - - - WNW 13 17 7 9 - - -
30/09:30am - - - - - NW 13 15 7 8 - - -
30/09:00am - - - - - NW 15 20 8 11 - - -
30/08:30am - - - - - N 22 26 12 14 - - -
30/08:00am - - - - - N 24 28 13 15 - - -
30/07:30am - - - - - N 20 28 11 15 - - -
30/07:00am - - - - - NNE 15 20 8 11 - - -
30/06:30am - - - - - N 20 26 11 14 - - -
30/06:00am - - - - - N 20 24 11 13 - - -
30/05:30am - - - - - N 22 26 12 14 - - -
30/05:00am - - - - - NE 20 24 11 13 - - -
30/04:30am - - - - - NE 24 28 13 15 - - -
30/04:00am - - - - - NE 22 26 12 14 - - -
30/03:30am - - - - - N 13 20 7 11 - - -
30/03:00am - - - - - NE 32 39 17 21 - - -
30/02:30am - - - - - ENE 30 33 16 18 - - -
30/02:00am - - - - - ENE 28 33 15 18 - - -
30/01:30am - - - - - ENE 30 33 16 18 - - -
30/01:00am - - - - - ENE 22 28 12 15 - - -
30/12:30am - - - - - ENE 24 30 13 16 - - -
30/12:00am - - - - - ENE 28 33 15 18 - - -
 
Date/Time
EDT
Temp
°C
App
Temp
°C
Dew
Point
°C
Rel
Hum
%
Delta-T
°C
Wind Press
QNH
hPa
Press
MSL
hPa
Rain since
9am
mm
Dir  Spd
km/h
Gust
km/h
Spd
kts
Gust
kts
29/11:30pm - - - - - NE 28 32 15 17 - - -
29/11:00pm - - - - - NE 30 35 16 19 - - -
29/10:30pm - - - - - NE 30 35 16 19 - - -
29/10:00pm - - - - - NE 32 41 17 22 - - -
29/09:30pm - - - - - NE 32 41 17 22 - - -
29/09:00pm - - - - - NE 32 35 17 19 - - -
29/08:30pm - - - - - NE 32 39 17 21 - - -
29/08:00pm - - - - - NE 30 39 16 21 - - -
29/07:30pm - - - - - NNE 28 33 15 18 - - -
29/07:00pm - - - - - N 30 35 16 19 - - -
29/06:30pm - - - - - N 30 35 16 19 - - -
29/06:00pm - - - - - N 43 50 23 27 - - -
29/05:30pm - - - - - NNW 30 39 16 21 - - -
29/05:00pm - - - - - N 32 35 17 19 - - -
29/04:33pm - - - - - NNW 32 52 17 28 - - -
29/04:30pm - - - - - NNW 32 39 17 21 - - -
29/04:15pm - - - - - NNW 59 89 32 48 - - -
29/04:06pm - - - - - N 37 80 20 43 - - -
29/04:05pm - - - - - N 33 67 18 36 - - -
29/04:00pm - - - - - N 28 35 15 19 - - -
29/03:30pm - - - - - N 35 44 19 24 - - -
29/03:00pm - - - - - N 37 48 20 26 - - -
29/02:30pm - - - - - N 35 50 19 27 - - -
29/02:06pm - - - - - N 33 52 18 28 - - -
29/02:00pm - - - - - N 32 41 17 22 - - -
29/01:30pm - - - - - N 37 46 20 25 - - -
29/01:00pm - - - - - NNW 35 48 19 26 - - -
29/12:30pm - - - - - N 33 43 18 23 - - -
29/12:10pm - - - - - NNW 33 52 18 28 - - -
29/12:00pm - - - - - NNW 35 48 19 26 - - -
29/11:30am - - - - - N 32 39 17 21 - - -
29/11:00am - - - - - NNW 28 35 15 19 - - -
29/10:30am - - - - - NNW 32 41 17 22 - - -
29/10:00am - - - - - NNW 39 44 21 24 - - -
29/09:30am - - - - - NNW 33 41 18 22 - - -
29/09:00am - - - - - NNW 37 48 20 26 - - -
29/08:30am - - - - - NNW 39 48 21 26 - - -

Latest Capital City Observations: Canberra | Sydney | Melbourne | Brisbane | Adelaide | Perth | Hobart | Darwin

Other Formats:

Comma delimited format used in spreadsheet applications
http://www.bom.gov.au/fwo/IDV60901/IDV60901.95872.axf

JavaScript Object Notation format (JSON) in row-major order
http://www.bom.gov.au/fwo/IDV60901/IDV60901.95872.json